sensor_id;sensor_type;location;lat;lon;timestamp;P1;durP1;ratioP1;P2;durP2;ratioP2
37365;SDS011;23239;51.504;7.456;2022-10-31T00:02:08;14.8;;;6.8;;
37365;SDS011;23239;51.504;7.456;2022-10-31T00:07:08;11.7;;;6.5;;
37365;SDS011;23239;51.504;7.456;2022-10-31T00:12:08;17.8;;;7.1;;
37365;SDS011;23239;51.504;7.456;2022-10-31T00:17:08;13;;;7;;
37365;SDS011;23239;51.504;7.456;2022-10-31T00:22:08;17.2;;;6.7;;
37365;SDS011;23239;51.504;7.456;2022-10-31T00:27:08;13.9;;;6.7;;
37365;SDS011;23239;51.504;7.456;2022-10-31T00:32:08;13.8;;;6.2;;
37365;SDS011;23239;51.504;7.456;2022-10-31T00:37:08;13.9;;;7.1;;
37365;SDS011;23239;51.504;7.456;2022-10-31T00:42:08;16.6;;;7;;
37365;SDS011;23239;51.504;7.456;2022-10-31T00:47:08;13.7;;;6.7;;
37365;SDS011;23239;51.504;7.456;2022-10-31T00:52:08;17.5;;;6.9;;
37365;SDS011;23239;51.504;7.456;2022-10-31T00:57:08;14.9;;;6.7;;
37365;SDS011;23239;51.504;7.456;2022-10-31T01:02:08;15.5;;;6.7;;
37365;SDS011;23239;51.504;7.456;2022-10-31T01:07:08;15.1;;;6.5;;
37365;SDS011;23239;51.504;7.456;2022-10-31T01:12:08;14.6;;;6.7;;
37365;SDS011;23239;51.504;7.456;2022-10-31T01:17:08;19.6;;;7.1;;
37365;SDS011;23239;51.504;7.456;2022-10-31T01:22:08;16.4;;;7.2;;
37365;SDS011;23239;51.504;7.456;2022-10-31T01:27:08;16.5;;;7.9;;
37365;SDS011;23239;51.504;7.456;2022-10-31T01:32:08;17.8;;;7.4;;
37365;SDS011;23239;51.504;7.456;2022-10-31T01:37:08;15;;;7.5;;
37365;SDS011;23239;51.504;7.456;2022-10-31T01:42:09;16;;;7.7;;
37365;SDS011;23239;51.504;7.456;2022-10-31T01:47:11;17;;;7.8;;
37365;SDS011;23239;51.504;7.456;2022-10-31T01:52:09;16.4;;;7.5;;
37365;SDS011;23239;51.504;7.456;2022-10-31T01:57:08;16.5;;;8.3;;
37365;SDS011;23239;51.504;7.456;2022-10-31T02:02:08;15.5;;;7.9;;
37365;SDS011;23239;51.504;7.456;2022-10-31T02:07:10;16.3;;;7.8;;
37365;SDS011;23239;51.504;7.456;2022-10-31T02:12:09;16;;;7.5;;
37365;SDS011;23239;51.504;7.456;2022-10-31T02:17:08;16.7;;;8.3;;
37365;SDS011;23239;51.504;7.456;2022-10-31T02:22:09;19.3;;;9.5;;
37365;SDS011;23239;51.504;7.456;2022-10-31T02:28:19;16.4;;;8.2;;
37365;SDS011;23239;51.504;7.456;2022-10-31T02:32:09;19;;;8.1;;
37365;SDS011;23239;51.504;7.456;2022-10-31T02:37:10;20;;;8.6;;
37365;SDS011;23239;51.504;7.456;2022-10-31T02:42:09;17.9;;;8.8;;
37365;SDS011;23239;51.504;7.456;2022-10-31T02:47:09;20.6;;;9.1;;
37365;SDS011;23239;51.504;7.456;2022-10-31T02:52:24;18.2;;;8.9;;
37365;SDS011;23239;51.504;7.456;2022-10-31T02:57:08;17.1;;;8.3;;
37365;SDS011;23239;51.504;7.456;2022-10-31T03:02:13;13.7;;;7.6;;
37365;SDS011;23239;51.504;7.456;2022-10-31T03:07:10;16;;;8.3;;
37365;SDS011;23239;51.504;7.456;2022-10-31T03:12:10;17.4;;;8.2;;
37365;SDS011;23239;51.504;7.456;2022-10-31T03:17:09;16.2;;;8.4;;
37365;SDS011;23239;51.504;7.456;2022-10-31T03:22:10;18.5;;;8.2;;
37365;SDS011;23239;51.504;7.456;2022-10-31T03:27:09;18.8;;;8.2;;
37365;SDS011;23239;51.504;7.456;2022-10-31T03:32:09;16.6;;;8.7;;
37365;SDS011;23239;51.504;7.456;2022-10-31T03:37:09;16.1;;;9.1;;
37365;SDS011;23239;51.504;7.456;2022-10-31T03:42:09;16.3;;;8.7;;
37365;SDS011;23239;51.504;7.456;2022-10-31T03:47:08;20.7;;;8.6;;
37365;SDS011;23239;51.504;7.456;2022-10-31T03:52:09;19.2;;;8.9;;
37365;SDS011;23239;51.504;7.456;2022-10-31T03:57:10;16.4;;;8.5;;
37365;SDS011;23239;51.504;7.456;2022-10-31T04:02:10;18;;;9.2;;
37365;SDS011;23239;51.504;7.456;2022-10-31T04:07:08;17.1;;;8.9;;
37365;SDS011;23239;51.504;7.456;2022-10-31T04:12:08;15.1;;;8.9;;
37365;SDS011;23239;51.504;7.456;2022-10-31T04:17:09;15;;;8.1;;
37365;SDS011;23239;51.504;7.456;2022-10-31T04:22:08;17.2;;;8.6;;
37365;SDS011;23239;51.504;7.456;2022-10-31T04:27:08;18;;;8.8;;
37365;SDS011;23239;51.504;7.456;2022-10-31T04:32:08;18.8;;;9.4;;
37365;SDS011;23239;51.504;7.456;2022-10-31T04:37:08;17.2;;;9.2;;
37365;SDS011;23239;51.504;7.456;2022-10-31T04:42:08;20.4;;;9.1;;
37365;SDS011;23239;51.504;7.456;2022-10-31T04:47:08;20.6;;;8.9;;
37365;SDS011;23239;51.504;7.456;2022-10-31T04:52:08;18.7;;;9.2;;
37365;SDS011;23239;51.504;7.456;2022-10-31T04:57:08;20.6;;;9.6;;
37365;SDS011;23239;51.504;7.456;2022-10-31T05:02:08;22.6;;;9;;
37365;SDS011;23239;51.504;7.456;2022-10-31T05:07:08;16.7;;;9;;
37365;SDS011;23239;51.504;7.456;2022-10-31T05:12:08;16.1;;;8.6;;
37365;SDS011;23239;51.504;7.456;2022-10-31T05:17:08;16.1;;;8.7;;
37365;SDS011;23239;51.504;7.456;2022-10-31T05:22:08;17.3;;;8.9;;
37365;SDS011;23239;51.504;7.456;2022-10-31T05:27:08;18.5;;;9.6;;
37365;SDS011;23239;51.504;7.456;2022-10-31T05:32:08;17.1;;;8.7;;
37365;SDS011;23239;51.504;7.456;2022-10-31T05:37:08;14.9;;;8.6;;
37365;SDS011;23239;51.504;7.456;2022-10-31T05:42:08;18.1;;;8.8;;
37365;SDS011;23239;51.504;7.456;2022-10-31T05:47:08;15.8;;;8.5;;
37365;SDS011;23239;51.504;7.456;2022-10-31T05:52:08;14.9;;;9;;
37365;SDS011;23239;51.504;7.456;2022-10-31T05:57:08;17.9;;;9.2;;
37365;SDS011;23239;51.504;7.456;2022-10-31T06:02:08;18.4;;;9.1;;
37365;SDS011;23239;51.504;7.456;2022-10-31T06:07:08;18.8;;;9.6;;
37365;SDS011;23239;51.504;7.456;2022-10-31T06:12:08;20.4;;;10.2;;
37365;SDS011;23239;51.504;7.456;2022-10-31T06:17:08;23.2;;;10.8;;
37365;SDS011;23239;51.504;7.456;2022-10-31T06:22:08;18.1;;;10;;
37365;SDS011;23239;51.504;7.456;2022-10-31T06:27:08;21.2;;;10.2;;
37365;SDS011;23239;51.504;7.456;2022-10-31T06:32:09;21;;;10.5;;
37365;SDS011;23239;51.504;7.456;2022-10-31T06:37:09;24.1;;;11.2;;
37365;SDS011;23239;51.504;7.456;2022-10-31T06:42:08;23.7;;;11.9;;
37365;SDS011;23239;51.504;7.456;2022-10-31T06:47:08;24.1;;;11.4;;
37365;SDS011;23239;51.504;7.456;2022-10-31T06:52:08;22.1;;;11.3;;
37365;SDS011;23239;51.504;7.456;2022-10-31T06:57:08;22.3;;;12.3;;
37365;SDS011;23239;51.504;7.456;2022-10-31T07:02:09;26.8;;;13;;
37365;SDS011;23239;51.504;7.456;2022-10-31T07:07:08;26.4;;;13.2;;
37365;SDS011;23239;51.504;7.456;2022-10-31T07:12:08;26.5;;;12.7;;
37365;SDS011;23239;51.504;7.456;2022-10-31T07:17:08;25.6;;;13.6;;
37365;SDS011;23239;51.504;7.456;2022-10-31T07:22:08;27.3;;;13.2;;
37365;SDS011;23239;51.504;7.456;2022-10-31T07:27:08;23.9;;;12.2;;
37365;SDS011;23239;51.504;7.456;2022-10-31T07:32:08;27.1;;;13.5;;
37365;SDS011;23239;51.504;7.456;2022-10-31T07:37:08;21.5;;;13.2;;
37365;SDS011;23239;51.504;7.456;2022-10-31T07:42:08;19.8;;;11.1;;
37365;SDS011;23239;51.504;7.456;2022-10-31T07:47:08;25.8;;;11.9;;
37365;SDS011;23239;51.504;7.456;2022-10-31T07:52:08;22.1;;;11.2;;
37365;SDS011;23239;51.504;7.456;2022-10-31T07:57:08;22.2;;;11.6;;
37365;SDS011;23239;51.504;7.456;2022-10-31T08:02:08;23;;;11.4;;
37365;SDS011;23239;51.504;7.456;2022-10-31T08:07:08;25.9;;;11.9;;
37365;SDS011;23239;51.504;7.456;2022-10-31T08:12:08;21;;;11.8;;
37365;SDS011;23239;51.504;7.456;2022-10-31T08:17:08;24.1;;;12;;
37365;SDS011;23239;51.504;7.456;2022-10-31T08:22:08;25.4;;;12.2;;
37365;SDS011;23239;51.504;7.456;2022-10-31T08:27:08;24.8;;;11.7;;
37365;SDS011;23239;51.504;7.456;2022-10-31T08:32:08;23.3;;;12.2;;
37365;SDS011;23239;51.504;7.456;2022-10-31T08:37:10;19.8;;;11.2;;
37365;SDS011;23239;51.504;7.456;2022-10-31T08:42:08;26.2;;;11.8;;
37365;SDS011;23239;51.504;7.456;2022-10-31T08:47:08;21.2;;;12.1;;
37365;SDS011;23239;51.504;7.456;2022-10-31T08:52:08;22;;;11.4;;
37365;SDS011;23239;51.504;7.456;2022-10-31T08:57:08;25;;;12.1;;
37365;SDS011;23239;51.504;7.456;2022-10-31T09:02:08;25.3;;;12.1;;
37365;SDS011;23239;51.504;7.456;2022-10-31T09:07:08;26.8;;;12.8;;
37365;SDS011;23239;51.504;7.456;2022-10-31T09:12:08;29.5;;;14.1;;
37365;SDS011;23239;51.504;7.456;2022-10-31T09:17:08;22.6;;;11.5;;
37365;SDS011;23239;51.504;7.456;2022-10-31T09:22:08;27.8;;;12.9;;
37365;SDS011;23239;51.504;7.456;2022-10-31T09:27:08;28.8;;;12.4;;
37365;SDS011;23239;51.504;7.456;2022-10-31T09:32:08;25.9;;;12.6;;
37365;SDS011;23239;51.504;7.456;2022-10-31T09:37:08;28;;;12.7;;
37365;SDS011;23239;51.504;7.456;2022-10-31T09:42:18;26.9;;;12.5;;
37365;SDS011;23239;51.504;7.456;2022-10-31T09:47:09;22;;;12.2;;
37365;SDS011;23239;51.504;7.456;2022-10-31T09:52:10;24.9;;;12.5;;
37365;SDS011;23239;51.504;7.456;2022-10-31T09:57:10;26.6;;;13.1;;
37365;SDS011;23239;51.504;7.456;2022-10-31T10:02:11;26.9;;;13.4;;
37365;SDS011;23239;51.504;7.456;2022-10-31T10:07:11;24.7;;;13;;
37365;SDS011;23239;51.504;7.456;2022-10-31T10:12:10;27.9;;;13.8;;
37365;SDS011;23239;51.504;7.456;2022-10-31T10:17:11;30.6;;;14.4;;
37365;SDS011;23239;51.504;7.456;2022-10-31T10:22:09;30.5;;;14.2;;
37365;SDS011;23239;51.504;7.456;2022-10-31T10:27:12;24.9;;;12.5;;
37365;SDS011;23239;51.504;7.456;2022-10-31T10:32:09;23.4;;;11.9;;
37365;SDS011;23239;51.504;7.456;2022-10-31T10:37:11;27.5;;;12.3;;
37365;SDS011;23239;51.504;7.456;2022-10-31T10:42:09;24;;;12.9;;
37365;SDS011;23239;51.504;7.456;2022-10-31T10:47:08;28;;;12.9;;
37365;SDS011;23239;51.504;7.456;2022-10-31T10:52:12;29.3;;;13.6;;
37365;SDS011;23239;51.504;7.456;2022-10-31T10:57:12;25.7;;;13.2;;
37365;SDS011;23239;51.504;7.456;2022-10-31T11:02:15;21.8;;;11.7;;
37365;SDS011;23239;51.504;7.456;2022-10-31T11:07:09;25.1;;;13;;
37365;SDS011;23239;51.504;7.456;2022-10-31T11:12:09;28.5;;;12.4;;
37365;SDS011;23239;51.504;7.456;2022-10-31T11:17:09;23.6;;;12.4;;
37365;SDS011;23239;51.504;7.456;2022-10-31T11:22:14;22.2;;;10.5;;
37365;SDS011;23239;51.504;7.456;2022-10-31T11:27:11;23.3;;;11.1;;
37365;SDS011;23239;51.504;7.456;2022-10-31T11:32:15;24.3;;;12.3;;
37365;SDS011;23239;51.504;7.456;2022-10-31T11:37:09;20.7;;;11.1;;
37365;SDS011;23239;51.504;7.456;2022-10-31T11:42:08;15.3;;;9.6;;
37365;SDS011;23239;51.504;7.456;2022-10-31T11:47:10;20.5;;;8.6;;
37365;SDS011;23239;51.504;7.456;2022-10-31T11:52:12;16.7;;;8.1;;
37365;SDS011;23239;51.504;7.456;2022-10-31T11:57:21;21.2;;;9.3;;
37365;SDS011;23239;51.504;7.456;2022-10-31T12:02:14;22.6;;;9.2;;
37365;SDS011;23239;51.504;7.456;2022-10-31T12:07:08;15.6;;;7.4;;
37365;SDS011;23239;51.504;7.456;2022-10-31T12:12:11;19.3;;;7.9;;
37365;SDS011;23239;51.504;7.456;2022-10-31T12:17:11;18.5;;;8.1;;
37365;SDS011;23239;51.504;7.456;2022-10-31T12:22:11;15.9;;;8.1;;
37365;SDS011;23239;51.504;7.456;2022-10-31T12:27:13;19.7;;;8.5;;
37365;SDS011;23239;51.504;7.456;2022-10-31T12:32:14;20.7;;;8;;
37365;SDS011;23239;51.504;7.456;2022-10-31T12:37:12;15.6;;;7.9;;
37365;SDS011;23239;51.504;7.456;2022-10-31T12:42:11;20;;;8;;
37365;SDS011;23239;51.504;7.456;2022-10-31T12:47:18;15.9;;;7.4;;
37365;SDS011;23239;51.504;7.456;2022-10-31T12:52:13;17.9;;;7;;
37365;SDS011;23239;51.504;7.456;2022-10-31T12:57:11;14.7;;;6.6;;
37365;SDS011;23239;51.504;7.456;2022-10-31T13:02:10;17.4;;;7.8;;
37365;SDS011;23239;51.504;7.456;2022-10-31T13:07:09;14.1;;;7.1;;
37365;SDS011;23239;51.504;7.456;2022-10-31T13:12:09;17.4;;;7.4;;
37365;SDS011;23239;51.504;7.456;2022-10-31T13:17:09;15.8;;;7.1;;
37365;SDS011;23239;51.504;7.456;2022-10-31T13:22:09;14;;;6;;
37365;SDS011;23239;51.504;7.456;2022-10-31T13:27:11;15.1;;;7.2;;
37365;SDS011;23239;51.504;7.456;2022-10-31T13:32:09;14.8;;;6.9;;
37365;SDS011;23239;51.504;7.456;2022-10-31T13:37:10;14.7;;;6.5;;
37365;SDS011;23239;51.504;7.456;2022-10-31T13:42:11;16.1;;;6;;
37365;SDS011;23239;51.504;7.456;2022-10-31T13:47:25;18.3;;;8;;
37365;SDS011;23239;51.504;7.456;2022-10-31T13:52:13;20.9;;;8.3;;
37365;SDS011;23239;51.504;7.456;2022-10-31T13:57:13;23.8;;;10.9;;
37365;SDS011;23239;51.504;7.456;2022-10-31T14:02:12;29.1;;;13.5;;
37365;SDS011;23239;51.504;7.456;2022-10-31T14:07:09;30.1;;;13.3;;
37365;SDS011;23239;51.504;7.456;2022-10-31T14:12:10;28.2;;;14.7;;
37365;SDS011;23239;51.504;7.456;2022-10-31T14:17:14;27.7;;;14.3;;
37365;SDS011;23239;51.504;7.456;2022-10-31T14:22:18;26.4;;;14.4;;
37365;SDS011;23239;51.504;7.456;2022-10-31T14:32:15;29.3;;;14.8;;
37365;SDS011;23239;51.504;7.456;2022-10-31T14:37:15;26.8;;;13.6;;
37365;SDS011;23239;51.504;7.456;2022-10-31T14:42:14;16.5;;;8.4;;
37365;SDS011;23239;51.504;7.456;2022-10-31T14:47:11;15.3;;;7.1;;
37365;SDS011;23239;51.504;7.456;2022-10-31T14:52:11;16.5;;;7;;
37365;SDS011;23239;51.504;7.456;2022-10-31T14:57:13;17.5;;;7.2;;
37365;SDS011;23239;51.504;7.456;2022-10-31T15:02:09;16.5;;;7;;
37365;SDS011;23239;51.504;7.456;2022-10-31T15:07:10;15.6;;;6.6;;
37365;SDS011;23239;51.504;7.456;2022-10-31T15:12:21;15.1;;;6.8;;
37365;SDS011;23239;51.504;7.456;2022-10-31T15:17:09;13.2;;;6.9;;
37365;SDS011;23239;51.504;7.456;2022-10-31T15:22:09;14.5;;;6.8;;
37365;SDS011;23239;51.504;7.456;2022-10-31T15:27:10;17.8;;;7;;
37365;SDS011;23239;51.504;7.456;2022-10-31T15:32:15;16.5;;;7;;
37365;SDS011;23239;51.504;7.456;2022-10-31T15:37:09;17.7;;;7.2;;
37365;SDS011;23239;51.504;7.456;2022-10-31T15:42:17;14.5;;;6.1;;
37365;SDS011;23239;51.504;7.456;2022-10-31T15:47:13;18.8;;;6.1;;
37365;SDS011;23239;51.504;7.456;2022-10-31T15:52:11;15.7;;;6.9;;
37365;SDS011;23239;51.504;7.456;2022-10-31T15:57:09;16.5;;;7.3;;
37365;SDS011;23239;51.504;7.456;2022-10-31T16:02:09;15.2;;;6.8;;
37365;SDS011;23239;51.504;7.456;2022-10-31T16:07:12;14.4;;;7.2;;
37365;SDS011;23239;51.504;7.456;2022-10-31T16:12:11;17.1;;;7.2;;
37365;SDS011;23239;51.504;7.456;2022-10-31T16:17:10;16.3;;;7.6;;
37365;SDS011;23239;51.504;7.456;2022-10-31T16:22:09;21.9;;;7.9;;
37365;SDS011;23239;51.504;7.456;2022-10-31T16:27:15;16.9;;;7.8;;
37365;SDS011;23239;51.504;7.456;2022-10-31T16:32:23;18.3;;;8.4;;
37365;SDS011;23239;51.504;7.456;2022-10-31T16:37:09;20;;;9.3;;
37365;SDS011;23239;51.504;7.456;2022-10-31T16:42:09;19.5;;;8.6;;
37365;SDS011;23239;51.504;7.456;2022-10-31T16:47:11;19.6;;;9.2;;
37365;SDS011;23239;51.504;7.456;2022-10-31T16:52:09;17.2;;;9.2;;
37365;SDS011;23239;51.504;7.456;2022-10-31T16:57:11;20.8;;;9.5;;
37365;SDS011;23239;51.504;7.456;2022-10-31T17:02:10;22.5;;;9.4;;
37365;SDS011;23239;51.504;7.456;2022-10-31T17:07:09;22.9;;;10.1;;
37365;SDS011;23239;51.504;7.456;2022-10-31T17:12:10;20.3;;;8.4;;
37365;SDS011;23239;51.504;7.456;2022-10-31T17:17:09;34.1;;;8.8;;
37365;SDS011;23239;51.504;7.456;2022-10-31T17:22:09;17.8;;;8.3;;
37365;SDS011;23239;51.504;7.456;2022-10-31T17:27:09;16.5;;;8.3;;
37365;SDS011;23239;51.504;7.456;2022-10-31T17:32:09;17.9;;;7.2;;
37365;SDS011;23239;51.504;7.456;2022-10-31T17:37:09;14.2;;;7.3;;
37365;SDS011;23239;51.504;7.456;2022-10-31T17:42:09;13.7;;;6.1;;
37365;SDS011;23239;51.504;7.456;2022-10-31T17:47:09;9.6;;;4.4;;
37365;SDS011;23239;51.504;7.456;2022-10-31T17:52:09;12;;;3.7;;
37365;SDS011;23239;51.504;7.456;2022-10-31T17:57:09;16.2;;;3.8;;
37365;SDS011;23239;51.504;7.456;2022-10-31T18:02:09;11.5;;;3.4;;
37365;SDS011;23239;51.504;7.456;2022-10-31T18:07:09;11.1;;;4;;
37365;SDS011;23239;51.504;7.456;2022-10-31T18:12:09;10.1;;;3.4;;
37365;SDS011;23239;51.504;7.456;2022-10-31T18:17:09;8.3;;;2.8;;
37365;SDS011;23239;51.504;7.456;2022-10-31T18:22:09;12;;;3.4;;
37365;SDS011;23239;51.504;7.456;2022-10-31T18:27:09;11.1;;;4;;
37365;SDS011;23239;51.504;7.456;2022-10-31T18:32:09;11.7;;;3.3;;
37365;SDS011;23239;51.504;7.456;2022-10-31T18:37:09;8.8;;;3.2;;
37365;SDS011;23239;51.504;7.456;2022-10-31T18:42:09;10.1;;;3.1;;
37365;SDS011;23239;51.504;7.456;2022-10-31T18:47:09;11.9;;;3.5;;
37365;SDS011;23239;51.504;7.456;2022-10-31T18:52:09;8.3;;;3.1;;
37365;SDS011;23239;51.504;7.456;2022-10-31T18:57:09;10.3;;;3.5;;
37365;SDS011;23239;51.504;7.456;2022-10-31T19:02:09;9.7;;;2.8;;
37365;SDS011;23239;51.504;7.456;2022-10-31T19:07:09;10.5;;;2.9;;
37365;SDS011;23239;51.504;7.456;2022-10-31T19:12:09;12.4;;;3.4;;
37365;SDS011;23239;51.504;7.456;2022-10-31T19:17:09;8.7;;;3.1;;
37365;SDS011;23239;51.504;7.456;2022-10-31T19:22:09;14.2;;;3.3;;
37365;SDS011;23239;51.504;7.456;2022-10-31T19:27:09;9.3;;;2.9;;
37365;SDS011;23239;51.504;7.456;2022-10-31T19:32:09;11.8;;;2.7;;
37365;SDS011;23239;51.504;7.456;2022-10-31T19:37:09;8.1;;;2.7;;
37365;SDS011;23239;51.504;7.456;2022-10-31T19:42:09;16.4;;;3.7;;
37365;SDS011;23239;51.504;7.456;2022-10-31T19:47:09;10.1;;;3.1;;
37365;SDS011;23239;51.504;7.456;2022-10-31T19:52:09;7.2;;;3.1;;
37365;SDS011;23239;51.504;7.456;2022-10-31T19:57:09;10;;;3.5;;
37365;SDS011;23239;51.504;7.456;2022-10-31T20:02:10;10.7;;;3;;
37365;SDS011;23239;51.504;7.456;2022-10-31T20:07:09;9.4;;;3.1;;
37365;SDS011;23239;51.504;7.456;2022-10-31T20:12:09;7.2;;;3.2;;
37365;SDS011;23239;51.504;7.456;2022-10-31T20:17:09;9.1;;;2.9;;
37365;SDS011;23239;51.504;7.456;2022-10-31T20:22:09;10.1;;;3.1;;
37365;SDS011;23239;51.504;7.456;2022-10-31T20:27:09;10.1;;;3.6;;
37365;SDS011;23239;51.504;7.456;2022-10-31T20:32:09;13.6;;;4.1;;
37365;SDS011;23239;51.504;7.456;2022-10-31T20:37:09;8.3;;;3.2;;
37365;SDS011;23239;51.504;7.456;2022-10-31T20:42:09;11.4;;;3;;
37365;SDS011;23239;51.504;7.456;2022-10-31T20:47:09;7.6;;;3;;
37365;SDS011;23239;51.504;7.456;2022-10-31T20:52:09;12.2;;;3.4;;
37365;SDS011;23239;51.504;7.456;2022-10-31T20:57:09;9.6;;;3.4;;
37365;SDS011;23239;51.504;7.456;2022-10-31T21:02:09;10.2;;;3.4;;
37365;SDS011;23239;51.504;7.456;2022-10-31T21:07:09;12;;;3.3;;
37365;SDS011;23239;51.504;7.456;2022-10-31T21:12:09;9.9;;;3.6;;
37365;SDS011;23239;51.504;7.456;2022-10-31T21:17:09;10.1;;;4.4;;
37365;SDS011;23239;51.504;7.456;2022-10-31T21:22:09;7.9;;;3.4;;
37365;SDS011;23239;51.504;7.456;2022-10-31T21:27:09;10.8;;;3.9;;
37365;SDS011;23239;51.504;7.456;2022-10-31T21:32:09;11.2;;;4.4;;
37365;SDS011;23239;51.504;7.456;2022-10-31T21:37:09;7.6;;;3.3;;
37365;SDS011;23239;51.504;7.456;2022-10-31T21:42:09;8.9;;;2.9;;
37365;SDS011;23239;51.504;7.456;2022-10-31T21:47:09;10.1;;;3.6;;
37365;SDS011;23239;51.504;7.456;2022-10-31T21:52:09;9;;;3.5;;
37365;SDS011;23239;51.504;7.456;2022-10-31T21:57:09;7.3;;;3.2;;
37365;SDS011;23239;51.504;7.456;2022-10-31T22:02:09;10;;;3.7;;
37365;SDS011;23239;51.504;7.456;2022-10-31T22:07:09;8.7;;;3.6;;
37365;SDS011;23239;51.504;7.456;2022-10-31T22:12:09;10.7;;;3.8;;
37365;SDS011;23239;51.504;7.456;2022-10-31T22:17:09;9;;;3.6;;
37365;SDS011;23239;51.504;7.456;2022-10-31T22:22:09;7.1;;;3.3;;
37365;SDS011;23239;51.504;7.456;2022-10-31T22:27:10;9.3;;;3.3;;
37365;SDS011;23239;51.504;7.456;2022-10-31T22:32:09;10.4;;;3.1;;
37365;SDS011;23239;51.504;7.456;2022-10-31T22:37:09;10.9;;;3.6;;
37365;SDS011;23239;51.504;7.456;2022-10-31T22:42:09;9;;;3.2;;
37365;SDS011;23239;51.504;7.456;2022-10-31T22:47:09;7.5;;;3.4;;
37365;SDS011;23239;51.504;7.456;2022-10-31T22:52:09;7.5;;;3.1;;
37365;SDS011;23239;51.504;7.456;2022-10-31T22:57:09;7.8;;;2.6;;
37365;SDS011;23239;51.504;7.456;2022-10-31T23:02:09;9.8;;;2.6;;
37365;SDS011;23239;51.504;7.456;2022-10-31T23:07:09;8.1;;;2.9;;
37365;SDS011;23239;51.504;7.456;2022-10-31T23:12:09;8.9;;;3;;
37365;SDS011;23239;51.504;7.456;2022-10-31T23:17:09;9.5;;;2.9;;
37365;SDS011;23239;51.504;7.456;2022-10-31T23:22:09;8.5;;;2.7;;
37365;SDS011;23239;51.504;7.456;2022-10-31T23:27:10;11.7;;;3.1;;
37365;SDS011;23239;51.504;7.456;2022-10-31T23:32:10;9.3;;;3.1;;
37365;SDS011;23239;51.504;7.456;2022-10-31T23:37:09;10.7;;;3.1;;
37365;SDS011;23239;51.504;7.456;2022-10-31T23:42:09;8.4;;;3.2;;
37365;SDS011;23239;51.504;7.456;2022-10-31T23:47:09;10.6;;;3.1;;
37365;SDS011;23239;51.504;7.456;2022-10-31T23:52:09;13.5;;;3.3;;
37365;SDS011;23239;51.504;7.456;2022-10-31T23:57:09;10.8;;;3.4;;
